Time,TemperatureF,DewpointF,PressureIn,WindDirection,WindDirectionDegrees,WindSpeedMPH,WindSpeedGustMPH,Humidity,HourlyPrecipIn,Conditions,Clouds,dailyrainin,SolarRadiationWatts/m^2,SoftwareType,DateUTC
2013-09-02 00:03:00,71.0,29.0,-100.00,NE,51,4.0,7.0,21,0.00,,,0.00,0.000000,,2013-09-02 06:03:00,
2013-09-02 00:12:00,71.0,29.0,-100.00,NE,51,4.0,7.0,21,0.00,,,0.00,0.000000,,2013-09-02 06:12:00,
2013-09-02 00:43:00,69.0,29.0,-100.00,NE,54,4.0,9.0,22,0.00,,,0.00,0.000000,,2013-09-02 06:43:00,
2013-09-02 00:52:00,69.0,29.0,-100.00,NE,54,4.0,9.0,22,0.00,,,0.00,0.000000,,2013-09-02 06:52:00,
2013-09-02 01:01:00,69.0,29.0,-100.00,NE,54,4.0,9.0,22,0.00,,,0.00,0.000000,,2013-09-02 07:01:00,
2013-09-02 01:11:00,69.0,29.0,-100.00,NE,54,4.0,9.0,22,0.00,,,0.00,0.000000,,2013-09-02 07:11:00,
2013-09-02 01:42:00,68.0,29.0,-100.00,NE,49,4.0,10.0,23,0.00,,,0.00,0.000000,,2013-09-02 07:42:00,
2013-09-02 01:52:00,68.0,29.0,-100.00,NE,49,4.0,10.0,23,0.00,,,0.00,0.000000,,2013-09-02 07:52:00,
2013-09-02 02:02:00,68.0,29.0,-100.00,NE,49,4.0,10.0,23,0.00,,,0.00,0.000000,,2013-09-02 08:02:00,
2013-09-02 02:11:00,68.0,29.0,-100.00,NE,49,4.0,10.0,23,0.00,,,0.00,0.000000,,2013-09-02 08:11:00,
2013-09-02 02:42:00,68.0,29.0,-100.00,NE,42,3.0,7.0,23,0.00,,,0.00,0.000000,,2013-09-02 08:42:00,
2013-09-02 02:52:00,68.0,29.0,-100.00,NE,42,3.0,7.0,23,0.00,,,0.00,0.000000,,2013-09-02 08:52:00,
2013-09-02 03:01:00,68.0,29.0,-100.00,NE,42,3.0,7.0,23,0.00,,,0.00,0.000000,,2013-09-02 09:01:00,
2013-09-02 03:12:00,68.0,29.0,-100.00,NE,42,3.0,7.0,23,0.00,,,0.00,0.000000,,2013-09-02 09:12:00,
2013-09-02 03:44:00,68.0,28.0,-100.00,NE,46,4.0,8.0,22,0.00,,,0.00,0.000000,,2013-09-02 09:44:00,
2013-09-02 03:53:00,68.0,28.0,-100.00,NE,46,4.0,8.0,22,0.00,,,0.00,0.000000,,2013-09-02 09:53:00,
2013-09-02 04:03:00,68.0,28.0,-100.00,NE,46,4.0,8.0,22,0.00,,,0.00,0.000000,,2013-09-02 10:03:00,
2013-09-02 04:13:00,68.0,28.0,-100.00,NE,46,4.0,8.0,22,0.00,,,0.00,0.000000,,2013-09-02 10:13:00,
2013-09-02 04:42:00,67.0,29.0,-100.00,East,95,4.0,7.0,24,0.00,,,0.00,0.000000,,2013-09-02 10:42:00,
2013-09-02 04:53:00,67.0,29.0,-100.00,East,95,4.0,7.0,24,0.00,,,0.00,0.000000,,2013-09-02 10:53:00,
2013-09-02 05:03:00,67.0,29.0,-100.00,East,95,4.0,7.0,24,0.00,,,0.00,0.000000,,2013-09-02 11:03:00,
2013-09-02 05:11:00,67.0,29.0,-100.00,East,95,4.0,7.0,24,0.00,,,0.00,0.000000,,2013-09-02 11:11:00,
2013-09-02 05:42:00,68.0,28.0,-100.00,ENE,64,3.0,7.0,22,0.00,,,0.00,0.000000,,2013-09-02 11:42:00,
2013-09-02 05:52:00,68.0,28.0,-100.00,ENE,64,3.0,7.0,22,0.00,,,0.00,0.000000,,2013-09-02 11:52:00,
2013-09-02 06:01:00,68.0,28.0,-100.00,ENE,64,3.0,7.0,22,0.00,,,0.00,0.000000,,2013-09-02 12:01:00,
2013-09-02 06:12:00,68.0,28.0,-100.00,ENE,64,3.0,7.0,22,0.00,,,0.00,0.000000,,2013-09-02 12:12:00,
2013-09-02 06:43:00,68.0,28.0,-100.00,East,88,2.0,9.0,22,0.00,,,-99.99,0.000000,,2013-09-02 12:43:00,
2013-09-02 06:52:00,68.0,28.0,-100.00,East,88,2.0,9.0,22,0.00,,,-99.99,0.000000,,2013-09-02 12:52:00,
2013-09-02 07:02:00,68.0,28.0,-100.00,East,88,2.0,9.0,22,0.00,,,-99.99,0.000000,,2013-09-02 13:02:00,
2013-09-02 07:11:00,68.0,28.0,-100.00,East,88,2.0,9.0,22,0.00,,,-99.99,0.000000,,2013-09-02 13:11:00,
2013-09-02 07:42:00,66.0,28.0,-100.00,NNW,335,3.0,4.0,24,0.00,,,0.00,0.000000,,2013-09-02 13:42:00,
2013-09-02 07:52:00,66.0,28.0,-100.00,NNW,335,3.0,4.0,24,0.00,,,0.00,0.000000,,2013-09-02 13:52:00,
2013-09-02 08:02:00,66.0,28.0,-100.00,NNW,335,3.0,4.0,24,0.00,,,0.00,0.000000,,2013-09-02 14:02:00,
2013-09-02 08:11:00,66.0,28.0,-100.00,NNW,335,3.0,4.0,24,0.00,,,0.00,0.000000,,2013-09-02 14:11:00,
2013-09-02 08:43:00,65.0,27.0,-100.00,NW,319,1.0,4.0,24,0.00,,,-99.99,2.000000,,2013-09-02 14:43:00,
2013-09-02 08:52:00,65.0,27.0,-100.00,NW,319,1.0,4.0,24,0.00,,,-99.99,2.000000,,2013-09-02 14:52:00,
2013-09-02 09:02:00,65.0,27.0,-100.00,NW,319,1.0,4.0,24,0.00,,,-99.99,2.000000,,2013-09-02 15:02:00,
2013-09-02 09:12:00,65.0,27.0,-100.00,NW,319,1.0,4.0,24,0.00,,,-99.99,2.000000,,2013-09-02 15:12:00,
2013-09-02 09:14:00,66.0,29.0,-100.00,NE,47,3.0,6.0,25,0.00,,,0.00,39.000000,,2013-09-02 15:14:00,
2013-09-02 09:45:00,66.0,29.0,-100.00,NE,47,3.0,6.0,25,0.00,,,0.00,39.000000,,2013-09-02 15:45:00,
2013-09-02 09:55:00,66.0,29.0,-100.00,NE,47,3.0,6.0,25,0.00,,,0.00,39.000000,,2013-09-02 15:55:00,
2013-09-02 10:04:00,66.0,29.0,-100.00,NE,47,3.0,6.0,25,0.00,,,0.00,39.000000,,2013-09-02 16:04:00,
2013-09-02 10:43:00,70.0,29.0,-100.00,ESE,110,2.0,6.0,22,0.00,,,0.00,157.000000,,2013-09-02 16:43:00,
2013-09-02 10:53:00,70.0,29.0,-100.00,ESE,110,2.0,6.0,22,0.00,,,0.00,157.000000,,2013-09-02 16:53:00,
2013-09-02 11:03:00,70.0,29.0,-100.00,ESE,110,2.0,6.0,22,0.00,,,0.00,157.000000,,2013-09-02 17:03:00,
2013-09-02 11:12:00,70.0,29.0,-100.00,ESE,110,2.0,6.0,22,0.00,,,0.00,157.000000,,2013-09-02 17:12:00,
2013-09-02 11:45:00,71.0,33.0,-100.00,WSW,245,2.0,5.0,25,0.00,,,0.00,284.000000,,2013-09-02 17:45:00,
2013-09-02 11:52:00,71.0,33.0,-100.00,WSW,245,2.0,5.0,25,0.00,,,0.00,284.000000,,2013-09-02 17:52:00,
2013-09-02 12:02:00,71.0,33.0,-100.00,WSW,245,2.0,5.0,25,0.00,,,0.00,284.000000,,2013-09-02 18:02:00,
2013-09-02 12:13:00,71.0,33.0,-100.00,WSW,245,2.0,5.0,25,0.00,,,0.00,284.000000,,2013-09-02 18:13:00,
2013-09-02 12:42:00,71.0,31.0,-100.00,SE,143,3.0,5.0,23,0.00,,,0.00,204.000000,,2013-09-02 18:42:00,
2013-09-02 12:52:00,71.0,31.0,-100.00,SE,143,3.0,5.0,23,0.00,,,0.00,204.000000,,2013-09-02 18:52:00,
2013-09-02 13:02:00,71.0,31.0,-100.00,SE,143,3.0,5.0,23,0.00,,,0.00,204.000000,,2013-09-02 19:02:00,
2013-09-02 13:12:00,71.0,31.0,-100.00,SE,143,3.0,5.0,23,0.00,,,0.00,204.000000,,2013-09-02 19:12:00,
2013-09-02 13:42:00,80.0,37.0,-100.00,SSW,206,4.0,6.0,21,0.00,,,0.00,616.000000,,2013-09-02 19:42:00,
2013-09-02 13:52:00,80.0,37.0,-100.00,SSW,206,4.0,6.0,21,0.00,,,0.00,616.000000,,2013-09-02 19:52:00,
2013-09-02 14:02:00,80.0,37.0,-100.00,SSW,206,4.0,6.0,21,0.00,,,0.00,616.000000,,2013-09-02 20:02:00,
2013-09-02 14:12:00,80.0,37.0,-100.00,SSW,206,4.0,6.0,21,0.00,,,0.00,616.000000,,2013-09-02 20:12:00,
2013-09-02 14:42:00,81.0,36.0,-100.00,SW,220,3.0,5.0,20,0.00,,,0.00,743.000000,,2013-09-02 20:42:00,
2013-09-02 14:52:00,81.0,36.0,-100.00,SW,220,3.0,5.0,20,0.00,,,0.00,743.000000,,2013-09-02 20:52:00,
2013-09-02 15:02:00,81.0,36.0,-100.00,SW,220,3.0,5.0,20,0.00,,,0.00,743.000000,,2013-09-02 21:02:00,
2013-09-02 15:12:00,81.0,36.0,-100.00,SW,220,3.0,5.0,20,0.00,,,0.00,743.000000,,2013-09-02 21:12:00,
2013-09-02 15:44:00,75.0,39.0,-100.00,SW,224,2.0,4.0,27,0.00,,,0.00,407.000000,,2013-09-02 21:44:00,
2013-09-02 15:55:00,75.0,39.0,-100.00,SW,224,2.0,4.0,27,0.00,,,0.00,407.000000,,2013-09-02 21:55:00,
2013-09-02 16:04:00,75.0,39.0,-100.00,SW,224,2.0,4.0,27,0.00,,,0.00,407.000000,,2013-09-02 22:04:00,
2013-09-02 16:13:00,75.0,39.0,-100.00,SW,224,2.0,4.0,27,0.00,,,0.00,407.000000,,2013-09-02 22:13:00,
2013-09-02 16:44:00,76.0,42.0,-100.00,SW,231,3.0,5.0,30,0.00,,,0.00,617.000000,,2013-09-02 22:44:00,
2013-09-02 16:54:00,76.0,42.0,-100.00,SW,231,3.0,5.0,30,0.00,,,0.00,617.000000,,2013-09-02 22:54:00,
2013-09-02 17:03:00,76.0,42.0,-100.00,SW,231,3.0,5.0,30,0.00,,,0.00,617.000000,,2013-09-02 23:03:00,
2013-09-02 17:12:00,76.0,42.0,-100.00,SW,231,3.0,5.0,30,0.00,,,0.00,617.000000,,2013-09-02 23:12:00,
2013-09-02 17:42:00,76.0,41.0,-100.00,WSW,238,2.0,6.0,28,0.00,,,-99.99,402.000000,,2013-09-02 23:42:00,
2013-09-02 17:53:00,76.0,41.0,-100.00,WSW,238,2.0,6.0,28,0.00,,,-99.99,402.000000,,2013-09-02 23:53:00,
2013-09-02 18:01:00,76.0,41.0,-100.00,WSW,238,2.0,6.0,28,0.00,,,-99.99,402.000000,,2013-09-03 00:01:00,
2013-09-02 18:11:00,76.0,41.0,-100.00,WSW,238,2.0,6.0,28,0.00,,,-99.99,402.000000,,2013-09-03 00:11:00,
2013-09-02 18:42:00,73.0,41.0,-100.00,SW,231,3.0,6.0,32,0.00,,,0.00,354.000000,,2013-09-03 00:42:00,
2013-09-02 18:52:00,73.0,41.0,-100.00,SW,231,3.0,6.0,32,0.00,,,0.00,354.000000,,2013-09-03 00:52:00,
2013-09-02 19:01:00,73.0,41.0,-100.00,SW,231,3.0,6.0,32,0.00,,,0.00,354.000000,,2013-09-03 01:01:00,
2013-09-02 19:11:00,73.0,41.0,-100.00,SW,231,3.0,6.0,32,0.00,,,0.00,354.000000,,2013-09-03 01:11:00,
2013-09-02 19:42:00,71.0,41.0,-100.00,SW,220,2.0,5.0,34,0.00,,,0.00,183.000000,,2013-09-03 01:42:00,
2013-09-02 19:52:00,71.0,41.0,-100.00,SW,220,2.0,5.0,34,0.00,,,0.00,183.000000,,2013-09-03 01:52:00,
2013-09-02 20:02:00,71.0,41.0,-100.00,SW,220,2.0,5.0,34,0.00,,,0.00,183.000000,,2013-09-03 02:02:00,
2013-09-02 20:12:00,71.0,41.0,-100.00,SW,220,2.0,5.0,34,0.00,,,0.00,183.000000,,2013-09-03 02:12:00,
2013-09-02 20:42:00,65.0,42.0,-100.00,WSW,243,2.0,5.0,43,0.00,,,0.00,58.000000,,2013-09-03 02:42:00,
2013-09-02 20:52:00,65.0,42.0,-100.00,WSW,243,2.0,5.0,43,0.00,,,0.00,58.000000,,2013-09-03 02:52:00,
2013-09-02 21:02:00,65.0,42.0,-100.00,WSW,243,2.0,5.0,43,0.00,,,0.00,58.000000,,2013-09-03 03:02:00,
2013-09-02 21:11:00,65.0,42.0,-100.00,WSW,243,2.0,5.0,43,0.00,,,0.00,58.000000,,2013-09-03 03:11:00,
2013-09-02 21:45:00,63.0,41.0,-100.00,West,265,2.0,7.0,44,0.00,,,0.00,16.000000,,2013-09-03 03:45:00,
2013-09-02 21:55:00,63.0,41.0,-100.00,West,265,2.0,7.0,44,0.00,,,0.00,16.000000,,2013-09-03 03:55:00,
2013-09-02 22:04:00,63.0,41.0,-100.00,West,265,2.0,7.0,44,0.00,,,0.00,16.000000,,2013-09-03 04:04:00,
2013-09-02 22:13:00,63.0,41.0,-100.00,West,265,2.0,7.0,44,0.00,,,0.00,16.000000,,2013-09-03 04:13:00,
2013-09-02 22:44:00,62.0,40.0,-100.00,NE,47,2.0,6.0,45,0.00,,,0.00,0.000000,,2013-09-03 04:44:00,
2013-09-02 22:53:00,62.0,40.0,-100.00,NE,47,2.0,6.0,45,0.00,,,0.00,0.000000,,2013-09-03 04:53:00,
2013-09-02 23:03:00,62.0,40.0,-100.00,NE,47,2.0,6.0,45,0.00,,,0.00,0.000000,,2013-09-03 05:03:00,
2013-09-02 23:12:00,62.0,40.0,-100.00,NE,47,2.0,6.0,45,0.00,,,0.00,0.000000,,2013-09-03 05:12:00,
2013-09-02 23:43:00,63.0,41.0,-100.00,NNE,15,2.0,5.0,45,0.00,,,0.00,0.000000,,2013-09-03 05:43:00,
2013-09-02 23:52:00,63.0,41.0,-100.00,NNE,15,2.0,5.0,45,0.00,,,0.00,0.000000,,2013-09-03 05:52:00,